Time;durP1;ratioP1;P1;durP2;ratioP2;P2;SDS_P1;SDS_P2;PMS_P1;PMS_P2;Temp;Humidity;BMP_temperature;BMP_pressure;BME280_temperature;BME280_humidity;BME280_pressure;Samples;Min_cycle;Max_cycle;Signal;HPM_P1;HPM_P2
2023/12/02 00:00:08;;;;;;;2.38;1.35;;;;;;;;;;5074570;28;20089;-69
2023/12/02 00:02:34;;;;;;;5.93;2.42;;;;;;;;;;5075735;28;20052;-69
2023/12/02 00:05:00;;;;;;;3.60;1.58;;;;;;;;;;5074218;28;20045;-70
2023/12/02 00:07:27;;;;;;;2.67;2.08;;;;;;;;;;5075999;28;20519;-69
2023/12/02 00:09:53;;;;;;;0.60;0.60;;;;;;;;;;5074797;28;20061;-69
2023/12/02 00:12:19;;;;;;;0.80;0.80;;;;;;;;;;5076331;28;20083;-71
2023/12/02 00:14:45;;;;;;;1.02;1.02;;;;;;;;;;5074593;28;20583;-69
2023/12/02 00:17:11;;;;;;;2.75;1.50;;;;;;;;;;5076084;28;20492;-71
2023/12/02 00:19:37;;;;;;;2.38;1.30;;;;;;;;;;5074979;28;20090;-69
2023/12/02 00:22:05;;;;;;;0.95;0.95;;;;;;;;;;5076274;28;20067;-69
2023/12/02 00:24:31;;;;;;;0.50;0.50;;;;;;;;;;5074898;28;20060;-71
2023/12/02 00:26:57;;;;;;;2.63;2.17;;;;;;;;;;5075460;28;20488;-69
2023/12/02 00:29:23;;;;;;;1.15;0.85;;;;;;;;;;5074921;28;20139;-74
2023/12/02 00:31:49;;;;;;;2.80;1.83;;;;;;;;;;5075595;28;21320;-69
2023/12/02 00:34:15;;;;;;;1.20;1.10;;;;;;;;;;5081550;28;20108;-70
2023/12/02 00:36:44;;;;;;;1.95;1.77;;;;;;;;;;5092221;28;20090;-69
2023/12/02 00:39:10;;;;;;;2.40;2.05;;;;;;;;;;5092888;28;20071;-69
2023/12/02 00:41:36;;;;;;;2.58;1.48;;;;;;;;;;5092189;28;20050;-69
2023/12/02 00:44:02;;;;;;;0.73;0.73;;;;;;;;;;5092740;28;20044;-69
2023/12/02 00:46:28;;;;;;;9.07;2.53;;;;;;;;;;5091748;28;20101;-69
2023/12/02 00:48:54;;;;;;;1.80;1.60;;;;;;;;;;5092749;28;20079;-68
2023/12/02 00:51:20;;;;;;;1.45;1.35;;;;;;;;;;5092471;28;20044;-69
2023/12/02 00:53:46;;;;;;;2.15;1.40;;;;;;;;;;5091633;28;20488;-72
2023/12/02 00:56:12;;;;;;;6.65;1.65;;;;;;;;;;5092259;28;20392;-69
2023/12/02 00:58:38;;;;;;;1.88;1.77;;;;;;;;;;5092795;28;20470;-69
2023/12/02 01:01:05;;;;;;;1.48;1.27;;;;;;;;;;5091963;28;20169;-69
2023/12/02 01:03:31;;;;;;;3.78;1.45;;;;;;;;;;5092707;28;20333;-69
2023/12/02 01:05:57;;;;;;;3.13;2.25;;;;;;;;;;5076168;28;20822;-69
2023/12/02 01:08:23;;;;;;;0.85;0.85;;;;;;;;;;5080608;28;20048;-69
2023/12/02 01:10:49;;;;;;;1.70;1.60;;;;;;;;;;5090018;28;20055;-69
2023/12/02 01:13:15;;;;;;;1.25;1.15;;;;;;;;;;5072824;28;20377;-69
2023/12/02 01:15:41;;;;;;;1.23;1.13;;;;;;;;;;5072972;28;20052;-69
2023/12/02 01:18:07;;;;;;;3.45;1.52;;;;;;;;;;5072913;28;20052;-70
2023/12/02 01:20:33;;;;;;;1.30;1.30;;;;;;;;;;5072681;28;20091;-73
2023/12/02 01:22:59;;;;;;;0.45;0.45;;;;;;;;;;5072646;28;20048;-69
2023/12/02 01:25:25;;;;;;;;;;;;;;;;;;5088540;28;20044;-69
2023/12/02 01:27:51;;;;;;;1.17;1.17;;;;;;;;;;5091317;28;19930;-69
2023/12/02 01:30:17;;;;;;;6.38;1.80;;;;;;;;;;5091929;28;20044;-69
2023/12/02 01:32:43;;;;;;;0.80;0.80;;;;;;;;;;5083175;28;20498;-71
2023/12/02 01:35:09;;;;;;;0.55;0.55;;;;;;;;;;5074626;28;20484;-69
2023/12/02 01:37:35;;;;;;;0.90;0.90;;;;;;;;;;5083676;28;20399;-69
2023/12/02 01:40:01;;;;;;;1.95;1.85;;;;;;;;;;5072669;28;20461;-69
2023/12/02 01:42:28;;;;;;;1.60;1.50;;;;;;;;;;5073424;28;20059;-68
2023/12/02 01:44:54;;;;;;;0.73;0.73;;;;;;;;;;5072446;28;20131;-72
2023/12/02 01:47:20;;;;;;;0.70;0.70;;;;;;;;;;5072364;28;20044;-69
2023/12/02 01:49:48;;;;;;;1.75;1.25;;;;;;;;;;5072074;28;20047;-69
2023/12/02 01:52:14;;;;;;;2.28;1.17;;;;;;;;;;5072539;28;20564;-69
2023/12/02 01:54:40;;;;;;;1.85;1.75;;;;;;;;;;5072099;28;20047;-72
2023/12/02 01:57:06;;;;;;;0.60;0.60;;;0.10;47.80;;;;;;5072777;28;20052;-69
2023/12/02 01:59:32;;;;;;;1.73;1.63;;;;;;;;;;5071539;28;20040;-70
2023/12/02 02:01:58;;;;;;;1.20;1.10;;;;;;;;;;5071943;28;20109;-69
2023/12/02 02:04:24;;;;;;;1.00;1.00;;;;;;;;;;5072709;28;20189;-69
2023/12/02 02:06:50;;;;;;;4.47;1.45;;;;;;;;;;5072241;28;20063;-69
2023/12/02 02:09:16;;;;;;;2.35;2.15;;;;;;;;;;5072531;28;20051;-70
2023/12/02 02:11:42;;;;;;;1.23;1.20;;;;;;;;;;5070938;28;20133;-70
2023/12/02 02:14:08;;;;;;;1.30;1.20;;;;;;;;;;5072337;28;20056;-69
2023/12/02 02:16:34;;;;;;;4.88;1.85;;;;;;;;;;5071818;28;20056;-69
2023/12/02 02:19:00;;;;;;;8.95;4.80;;;;;;;;;;5072550;28;20055;-69
2023/12/02 02:21:26;;;;;;;1.85;1.67;;;;;;;;;;5071426;28;20127;-72
2023/12/02 02:23:52;;;;;;;0.55;0.55;;;;;;;;;;5072449;28;20049;-72
2023/12/02 02:26:18;;;;;;;0.88;0.88;;;;;;;;;;5072367;28;20454;-69
2023/12/02 02:28:45;;;;;;;0.50;0.50;;;;;;;;;;5072684;28;20131;-69
2023/12/02 02:31:11;;;;;;;1.73;1.63;;;;;;;;;;5072060;28;20044;-69
2023/12/02 02:33:37;;;;;;;3.35;1.90;;;;;;;;;;5073095;28;20052;-70
2023/12/02 02:36:03;;;;;;;2.05;1.23;;;;;;;;;;5091482;28;20058;-69
2023/12/02 02:38:29;;;;;;;1.40;1.30;;;;;;;;;;5091205;28;20051;-69
2023/12/02 02:40:55;;;;;;;2.28;1.48;;;;;;;;;;5091167;28;20076;-70
2023/12/02 02:43:21;;;;;;;0.52;0.52;;;;;;;;;;5091167;28;20105;-69
2023/12/02 02:45:49;;;;;;;1.92;1.67;;;;;;;;;;5091507;28;20125;-69
2023/12/02 02:48:15;;;;;;;0.80;0.80;;;;;;;;;;5074637;28;20443;-69
2023/12/02 02:50:42;;;;;;;1.83;1.73;;;;;;;;;;5071200;28;20433;-69
2023/12/02 02:53:09;;;;;;;1.63;1.52;;;;;;;;;;5071142;28;20080;-69
2023/12/02 02:55:35;;;;;;;2.50;2.20;;;;;;;;;;5081224;28;20050;-69
2023/12/02 02:58:01;;;;;;;1.48;1.38;;;;;;;;;;5087353;28;20044;-69
2023/12/02 03:00:27;;;;;;;1.27;1.17;;;;;;;;;;5071200;28;20507;-73
2023/12/02 03:02:53;;;;;;;2.30;2.15;;;;;;;;;;5070703;28;20496;-71
2023/12/02 03:05:19;;;;;;;3.13;2.67;;;;;;;;;;5071070;28;20073;-70
2023/12/02 03:07:44;;;;;;;0.50;0.50;;;-0.10;52.20;;;;;;5071259;28;20048;-69
2023/12/02 03:10:11;;;;;;;3.45;1.98;;;;;;;;;;5071760;28;20056;-69
2023/12/02 03:12:37;;;;;;;1.67;1.58;;;;;;;;;;5069911;28;20063;-70
2023/12/02 03:15:03;;;;;;;1.42;1.35;;;;;;;;;;5071046;28;20450;-72
2023/12/02 03:17:30;;;;;;;0.88;0.82;;;;;;;;;;5071031;28;20051;-70
2023/12/02 03:19:56;;;;;;;0.65;0.65;;;;;;;;;;5070934;28;20408;-69
2023/12/02 03:22:22;;;;;;;2.72;1.80;;;;;;;;;;5070653;28;20044;-69
2023/12/02 03:24:48;;;;;;;3.53;2.83;;;;;;;;;;5070712;28;20045;-69
2023/12/02 03:27:14;;;;;;;0.70;0.70;;;;;;;;;;5086686;28;20052;-69
2023/12/02 03:29:40;;;;;;;2.60;2.00;;;;;;;;;;5081108;28;20131;-69
2023/12/02 03:32:06;;;;;;;1.65;1.55;;;;;;;;;;5072837;28;20480;-69
2023/12/02 03:34:33;;;;;;;1.55;1.42;;;;;;;;;;5085392;28;20051;-69
2023/12/02 03:36:59;;;;;;;;;;;-1.60;51.40;;;;;;5094173;28;20518;-70
2023/12/02 03:39:25;;;;;;;1.38;1.27;;;;;;;;;;5094570;28;19924;-69
2023/12/02 03:41:51;;;;;;;2.22;2.13;;;;;;;;;;5093513;28;20066;-70
2023/12/02 03:44:17;;;;;;;4.40;2.67;;;;;;;;;;5094105;28;20051;-69
2023/12/02 03:46:43;;;;;;;1.13;1.02;;;;;;;;;;5092906;28;20405;-69
2023/12/02 03:49:09;;;;;;;;;;;;;;;;;;5094502;28;20047;-69
2023/12/02 03:51:35;;;;;;;3.22;1.45;;;;;;;;;;5093377;28;19931;-70
2023/12/02 03:54:01;;;;;;;1.30;1.20;;;;;;;;;;5094540;28;20090;-69
2023/12/02 03:56:27;;;;;;;0.95;0.95;;;;;;;;;;5093547;28;20059;-69
2023/12/02 03:58:55;;;;;;;4.15;1.95;;;;;;;;;;5083733;28;20048;-69
2023/12/02 04:01:22;;;;;;;0.52;0.52;;;;;;;;;;5074009;28;20048;-70
2023/12/02 04:03:48;;;;;;;6.50;1.17;;;;;;;;;;5074521;28;20060;-70
2023/12/02 04:06:14;;;;;;;2.00;1.45;;;;;;;;;;5091743;28;20602;-70
2023/12/02 04:08:40;;;;;;;4.40;1.48;;;;;;;;;;5093879;28;20085;-69
2023/12/02 04:11:06;;;;;;;1.30;1.20;;;;;;;;;;5093006;28;20552;-71
2023/12/02 04:13:32;;;;;;;;;;;;;;;;;;5094226;28;20052;-71
2023/12/02 04:15:58;;;;;;;2.15;0.90;;;;;;;;;;5092787;28;20465;-69
2023/12/02 04:18:25;;;;;;;3.75;1.75;;;;;;;;;;5093216;28;20036;-69
2023/12/02 04:20:51;;;;;;;2.55;1.95;;;;;;;;;;5092354;28;20079;-69
2023/12/02 04:23:17;;;;;;;2.72;1.98;;;;;;;;;;5093342;28;20479;-69
2023/12/02 04:25:44;;;;;;;0.90;0.90;;;;;;;;;;5092906;28;20040;-69
2023/12/02 04:28:10;;;;;;;0.77;0.77;;;;;;;;;;5093916;28;20129;-69
2023/12/02 04:30:37;;;;;;;;;;;-1.80;56.50;;;;;;5093274;28;20044;-69
2023/12/02 04:33:03;;;;;;;3.00;1.85;;;;;;;;;;5082268;28;19960;-69
2023/12/02 04:35:30;;;;;;;1.20;1.10;;;;;;;;;;5073951;28;20055;-69
2023/12/02 04:37:56;;;;;;;;;;;0.30;58.40;;;;;;5074575;28;20044;-69
2023/12/02 04:40:22;;;;;;;3.65;1.42;;;;;;;;;;5074347;28;20014;-69
2023/12/02 04:42:48;;;;;;;3.15;1.77;;;;;;;;;;5073412;28;20493;-69
2023/12/02 04:45:14;;;;;;;1.42;1.33;;;;;;;;;;5074038;28;20477;-69
2023/12/02 04:47:40;;;;;;;1.85;1.38;;;;;;;;;;5073859;28;20575;-71
2023/12/02 04:50:07;;;;;;;1.40;1.30;;;;;;;;;;5073638;28;20049;-69
2023/12/02 04:52:32;;;;;;;;;;;-0.10;57.40;;;;;;5074370;28;20052;-69
2023/12/02 04:54:59;;;;;;;3.58;2.28;;;;;;;;;;5075031;28;19986;-69
2023/12/02 04:57:26;;;;;;;4.03;1.02;;;;;;;;;;5074194;28;20055;-70
2023/12/02 04:59:52;;;;;;;1.13;1.05;;;;;;;;;;5074634;28;20550;-69
2023/12/02 05:02:20;;;;;;;0.90;0.90;;;;;;;;;;5074136;28;20412;-69
2023/12/02 05:04:46;;;;;;;1.42;1.33;;;;;;;;;;5074626;28;20088;-69
2023/12/02 05:07:12;;;;;;;0.77;0.77;;;;;;;;;;5073797;28;20060;-69
2023/12/02 05:09:38;;;;;;;0.98;0.98;;;;;;;;;;5074287;28;20052;-69
2023/12/02 05:12:04;;;;;;;;;;;;;;;;;;5074423;28;20103;-73
2023/12/02 05:14:30;;;;;;;1.75;1.65;;;;;;;;;;5072700;28;20376;-69
2023/12/02 05:16:56;;;;;;;1.42;1.33;;;;;;;;;;5073762;28;20052;-70
2023/12/02 05:19:22;;;;;;;1.27;1.17;;;;;;;;;;5074579;28;20117;-71
2023/12/02 05:21:48;;;;;;;1.65;1.55;;;;;;;;;;5073759;28;20044;-74
2023/12/02 05:24:15;;;;;;;1.35;1.25;;;;;;;;;;5074221;28;20040;-71
2023/12/02 05:26:41;;;;;;;1.15;1.15;;;;;;;;;;5073187;28;20040;-69
2023/12/02 05:29:07;;;;;;;1.20;1.20;;;;;;;;;;5073698;28;20044;-70
2023/12/02 05:31:33;;;;;;;1.98;1.27;;;-0.80;59.80;;;;;;5072210;28;20045;-69
2023/12/02 05:33:59;;;;;;;0.95;0.95;;;;;;;;;;5072483;28;20051;-69
2023/12/02 05:36:25;;;;;;;0.80;0.80;;;;;;;;;;5072655;28;20045;-71
2023/12/02 05:38:51;;;;;;;;;;;-1.30;57.90;;;;;;5072963;28;20077;-69
2023/12/02 05:41:17;;;;;;;3.75;1.33;;;;;;;;;;5072593;28;19920;-70
2023/12/02 05:43:43;;;;;;;1.05;1.05;;;;;;;;;;5072956;28;20125;-69
2023/12/02 05:46:15;;;;;;;1.33;1.25;;;;;;;;;;5073072;28;20047;-69
2023/12/02 05:48:41;;;;;;;0.55;0.55;;;;;;;;;;5072863;28;20131;-69
2023/12/02 05:51:07;;;;;;;1.98;1.63;;;;;;;;;;5073436;28;20055;-69
2023/12/02 05:53:33;;;;;;;2.63;1.30;;;;;;;;;;5059800;28;20063;-71
2023/12/02 05:55:59;;;;;;;2.10;1.85;;;;;;;;;;5072280;28;20062;-71
2023/12/02 05:58:25;;;;;;;1.98;1.05;;;;;;;;;;5072715;28;20109;-70
2023/12/02 06:00:51;;;;;;;0.68;0.68;;;;;;;;;;5072472;28;20060;-70
2023/12/02 06:03:17;;;;;;;0.43;0.43;;;;;;;;;;5072667;28;20040;-69
2023/12/02 06:05:43;;;;;;;3.60;1.42;;;;;;;;;;5072106;28;20056;-69
2023/12/02 06:08:09;;;;;;;0.90;0.90;;;;;;;;;;5072301;28;20097;-69
2023/12/02 06:10:35;;;;;;;0.90;0.90;;;;;;;;;;5072584;28;20057;-69
2023/12/02 06:13:02;;;;;;;1.30;1.20;;;;;;;;;;5072341;28;20068;-69
2023/12/02 06:15:28;;;;;;;3.63;2.08;;;;;;;;;;5072263;28;20040;-70
2023/12/02 06:17:56;;;;;;;1.08;0.95;;;;;;;;;;5072332;28;20098;-69
2023/12/02 06:20:26;;;;;;;0.47;0.47;;;;;;;;;;5073050;28;20053;-69
2023/12/02 06:22:52;;;;;;;1.30;1.20;;;;;;;;;;5072109;28;20054;-68
2023/12/02 06:25:19;;;;;;;2.53;1.48;;;;;;;;;;5072799;28;20055;-69
2023/12/02 06:27:45;;;;;;;0.45;0.45;;;;;;;;;;5072090;28;20512;-70
2023/12/02 06:30:15;;;;;;;0.75;0.75;;;;;;;;;;5072184;28;20110;-68
2023/12/02 06:32:41;;;;;;;1.55;1.10;;;;;;;;;;5071245;28;20574;-68
2023/12/02 06:35:07;;;;;;;1.48;1.35;;;;;;;;;;5086225;28;20186;-69
2023/12/02 06:37:33;;;;;;;;;;;;;;;;;;5092178;28;20044;-71
2023/12/02 06:40:00;;;;;;;2.15;1.30;;;;;;;;;;5091217;28;19924;-69
2023/12/02 06:42:26;;;;;;;2.38;1.02;;;;;;;;;;5091619;28;20068;-72
2023/12/02 06:44:52;;;;;;;1.05;0.82;;;;;;;;;;5088677;28;20051;-69
2023/12/02 06:47:18;;;;;;;1.83;1.70;;;;;;;;;;5071506;28;20048;-69
2023/12/02 06:49:44;;;;;;;0.93;0.93;;;;;;;;;;5071405;28;20041;-68
2023/12/02 06:52:10;;;;;;;2.53;2.30;;;;;;;;;;5071411;28;20051;-69
2023/12/02 06:54:36;;;;;;;3.45;2.70;;;;;;;;;;5070254;28;20052;-68
2023/12/02 06:57:04;;;;;;;1.02;1.02;;;0.80;62.50;;;;;;5080218;28;20399;-69
2023/12/02 06:59:31;;;;;;;0.75;0.75;;;;;;;;;;5090295;28;20132;-69
2023/12/02 07:01:57;;;;;;;0.68;0.68;;;;;;;;;;5090844;28;20052;-70
2023/12/02 07:04:23;;;;;;;0.82;0.82;;;;;;;;;;5089944;28;20048;-69
2023/12/02 07:06:49;;;;;;;0.82;0.82;;;;;;;;;;5089848;28;20135;-68
2023/12/02 07:09:15;;;;;;;0.90;0.88;;;;;;;;;;5089295;28;20400;-68
2023/12/02 07:11:41;;;;;;;1.30;1.30;;;;;;;;;;5090311;28;20133;-69
2023/12/02 07:14:08;;;;;;;2.65;1.58;;;;;;;;;;5089305;28;20040;-71
2023/12/02 07:16:34;;;;;;;1.48;1.13;;;;;;;;;;5090456;28;20056;-69
2023/12/02 07:19:00;;;;;;;0.77;0.77;;;;;;;;;;5089397;28;20091;-68
2023/12/02 07:21:26;;;;;;;1.33;1.33;;;;;;;;;;5090392;28;20044;-69
2023/12/02 07:23:53;;;;;;;1.63;1.52;;;;;;;;;;5089020;28;20040;-68
2023/12/02 07:26:19;;;;;;;0.95;0.95;;;;;;;;;;5090108;28;20127;-68
2023/12/02 07:28:45;;;;;;;0.47;0.47;;;;;;;;;;5089265;28;20043;-69
2023/12/02 07:31:14;;;;;;;2.20;1.98;;;;;;;;;;5090466;28;20121;-68
2023/12/02 07:33:41;;;;;;;1.83;1.67;;;;;;;;;;5072408;28;20463;-69
2023/12/02 07:36:07;;;;;;;0.88;0.88;;;;;;;;;;5067032;28;20110;-68
2023/12/02 07:38:33;;;;;;;0.98;0.98;;;;;;;;;;5085370;28;20052;-68
2023/12/02 07:40:59;;;;;;;1.08;0.82;;;;;;;;;;5070816;28;20098;-70
2023/12/02 07:43:25;;;;;;;1.15;1.15;;;;;;;;;;5078433;28;20531;-68
2023/12/02 07:45:51;;;;;;;2.15;1.95;;;;;;;;;;5062975;28;20583;-72
2023/12/02 07:48:17;;;;;;;1.35;1.25;;;;;;;;;;5073337;28;20047;-68
2023/12/02 07:50:43;;;;;;;1.33;1.30;;;;;;;;;;5069384;28;20044;-68
2023/12/02 07:53:09;;;;;;;1.23;1.13;;;;;;;;;;5075116;28;20044;-68
2023/12/02 07:55:36;;;;;;;0.95;0.95;;;;;;;;;;5071729;28;20175;-68
2023/12/02 07:58:02;;;;;;;0.85;0.85;;;;;;;;;;5075646;28;20059;-69
2023/12/02 08:00:28;;;;;;;2.47;1.02;;;;;;;;;;5073195;28;20053;-69
2023/12/02 08:02:54;;;;;;;1.77;1.60;;;;;;;;;;5074612;28;20048;-68
2023/12/02 08:05:20;;;;;;;1.90;1.75;;;;;;;;;;5054726;28;20128;-68
2023/12/02 08:07:46;;;;;;;9.57;1.38;;;;;;;;;;5076132;28;20056;-68
2023/12/02 08:10:13;;;;;;;2.80;1.73;;;;;;;;;;5072661;28;20141;-68
2023/12/02 08:12:39;;;;;;;;;;;;;;;;;;5070964;28;20056;-69
2023/12/02 08:15:07;;;;;;;1.17;1.13;;;;;;;;;;5062485;28;19921;-68
2023/12/02 08:17:34;;;;;;;0.68;0.63;;;;;;;;;;5086398;28;20507;-68
2023/12/02 08:20:00;;;;;;;1.38;0.98;;;;;;;;;;5089405;28;20052;-68
2023/12/02 08:22:26;;;;;;;1.48;1.45;;;;;;;;;;5091209;28;20075;-68
2023/12/02 08:24:52;;;;;;;0.60;0.60;;;;;;;;;;5089399;28;20044;-69
2023/12/02 08:27:18;;;;;;;0.52;0.52;;;;;;;;;;5080342;28;20040;-67
2023/12/02 08:29:45;;;;;;;0.50;0.50;;;;;;;;;;5090375;28;20127;-67
2023/12/02 08:32:11;;;;;;;0.80;0.80;;;;;;;;;;5077080;28;20097;-68
2023/12/02 08:34:37;;;;;;;0.40;0.40;;;;;;;;;;5073017;28;20051;-68
2023/12/02 08:37:03;;;;;;;2.03;0.65;;;;;;;;;;5073287;28;20055;-68
2023/12/02 08:39:29;;;;;;;8.88;2.05;;;;;;;;;;5073333;28;20105;-68
2023/12/02 08:41:55;;;;;;;0.50;0.50;;;;;;;;;;5071619;28;20128;-67
2023/12/02 08:44:22;;;;;;;0.70;0.70;;;;;;;;;;5074802;28;20043;-67
2023/12/02 08:46:49;;;;;;;2.67;1.75;;;;;;;;;;5075657;28;20048;-67
2023/12/02 08:49:15;;;;;;;1.73;1.13;;;;;;;;;;5075095;28;20155;-68
2023/12/02 08:51:41;;;;;;;0.93;0.93;;;;;;;;;;5076305;28;20412;-68
2023/12/02 08:54:07;;;;;;;0.40;0.40;;;;;;;;;;5074423;28;20454;-67
2023/12/02 08:56:33;;;;;;;0.70;0.70;;;;;;;;;;5076439;28;20049;-69
2023/12/02 08:58:59;;;;;;;0.47;0.47;;;;;;;;;;5075230;28;20048;-68
2023/12/02 09:01:25;;;;;;;0.50;0.50;;;;;;;;;;5076157;28;20500;-69
2023/12/02 09:03:51;;;;;;;;;;;0.60;70.60;;;;;;5072056;28;20044;-68
2023/12/02 09:06:17;;;;;;;0.73;0.73;;;;;;;;;;5079123;28;20376;-66
2023/12/02 09:08:43;;;;;;;1.27;0.82;;;;;;;;;;5082034;28;20041;-67
2023/12/02 09:11:09;;;;;;;2.10;1.27;;;;;;;;;;5085554;28;20530;-68
2023/12/02 09:13:42;;;;;;;1.25;1.05;;;;;;;;;;5081972;28;20048;-65
2023/12/02 09:16:11;;;;;;;0.63;0.63;;;;;;;;;;5073203;28;20067;-67
2023/12/02 09:18:38;;;;;;;1.35;1.10;;;;;;;;;;5072783;28;20693;-71
2023/12/02 09:21:04;;;;;;;;;;;0.90;67.70;;;;;;5072800;28;20040;-65
2023/12/02 09:23:30;;;;;;;2.83;1.85;;;;;;;;;;5073029;28;19925;-70
2023/12/02 09:25:59;;;;;;;;;;;-0.10;69.60;;;;;;5062610;28;20127;-70
2023/12/02 09:28:29;;;;;;;2.45;1.75;;;;;;;;;;5086183;28;19984;-67
2023/12/02 09:30:55;;;;;;;0.82;0.82;;;;;;;;;;5081036;28;20049;-69
2023/12/02 09:33:21;;;;;;;0.47;0.47;;;;;;;;;;5072033;28;20060;-69
2023/12/02 09:35:53;;;;;;;0.98;0.98;;;0.60;66.30;;;;;;5072274;28;20041;-67
2023/12/02 09:38:19;;;;;;;0.60;0.60;;;;;;;;;;5072198;28;20120;-68
2023/12/02 09:41:09;;;;;;;0.30;0.30;;;0.00;64.20;;;;;;5079510;28;20044;-68
2023/12/02 09:43:38;;;;;;;0.50;0.50;;;;;;;;;;5086519;28;20055;-68
2023/12/02 09:46:22;;;;;;;1.58;1.25;;;;;;;;;;5091792;28;20083;-69
2023/12/02 09:49:02;;;;;;;1.25;1.15;;;;;;;;;;5068446;28;20054;-69
2023/12/02 09:51:34;;;;;;;0.70;0.70;;;;;;;;;;5077691;28;20052;-70
2023/12/02 09:54:00;;;;;;;1.00;1.00;;;;;;;;;;5072234;28;20502;-69
2023/12/02 09:56:30;;;;;;;0.65;0.65;;;;;;;;;;5077116;28;20051;-69
2023/12/02 09:59:11;;;;;;;1.15;0.82;;;;;;;;;;5074102;28;20473;-69
2023/12/02 10:01:47;;;;;;;0.52;0.52;;;;;;;;;;5077433;28;20045;-68
2023/12/02 10:04:28;;;;;;;0.80;0.80;;;;;;;;;;5075678;28;20098;-71
2023/12/02 10:07:08;;;;;;;0.85;0.85;;;;;;;;;;5068395;28;20064;-70
2023/12/02 10:09:46;;;;;;;0.40;0.40;;;;;;;;;;5077268;28;20147;-69
2023/12/02 10:12:12;;;;;;;1.65;1.38;;;;;;;;;;5075215;28;20141;-70
2023/12/02 10:14:41;;;;;;;0.60;0.60;;;0.10;58.20;;;;;;5077303;28;20158;-69
2023/12/02 10:17:09;;;;;;;0.40;0.40;;;;;;;;;;5075522;28;20040;-70
2023/12/02 10:19:47;;;;;;;0.68;0.68;;;;;;;;;;5076780;28;20416;-72
2023/12/02 10:22:15;;;;;;;1.65;1.00;;;;;;;;;;5078310;28;20397;-70
2023/12/02 10:24:50;;;;;;;0.95;0.88;;;;;;;;;;5065606;28;20055;-70
2023/12/02 10:27:17;;;;;;;1.63;1.05;;;0.30;58.00;;;;;;5078494;28;20047;-70
2023/12/02 10:30:13;;;;;;;1.65;0.73;;;0.10;58.10;;;;;;5090854;28;20084;-71
2023/12/02 10:32:39;;;;;;;0.50;0.50;;;;;;;;;;5061644;28;20048;-70
2023/12/02 10:35:16;;;;;;;0.80;0.80;;;;;;;;;;5078167;28;20049;-70
2023/12/02 10:37:43;;;;;;;0.30;0.30;;;;;;;;;;5084236;28;20071;-74
2023/12/02 10:40:10;;;;;;;1.20;0.70;;;;;;;;;;5076998;28;20515;-70
2023/12/02 10:42:45;;;;;;;0.85;0.85;;;;;;;;;;5081428;28;20060;-69
2023/12/02 10:45:12;;;;;;;3.60;1.27;;;;;;;;;;5079695;28;20051;-70
2023/12/02 10:47:38;;;;;;;0.50;0.50;;;;;;;;;;5077765;28;20043;-70
2023/12/02 10:50:05;;;;;;;0.68;0.68;;;;;;;;;;5080286;28;20048;-70
2023/12/02 10:52:31;;;;;;;;;;;1.40;55.90;;;;;;5076909;28;20052;-71
2023/12/02 10:54:59;;;;;;;1.10;0.70;;;2.40;55.20;;;;;;5080514;28;20399;-71
2023/12/02 10:57:26;;;;;;;0.22;0.22;;;0.60;53.50;;;;;;5074376;28;20519;-71
2023/12/02 10:59:52;;;;;;;0.40;0.40;;;;;;;;;;5081236;28;20407;-71
2023/12/02 11:02:45;;;;;;;0.35;0.35;;;1.50;54.50;;;;;;5077215;28;20051;-71
2023/12/02 11:05:16;;;;;;;2.55;0.75;;;;;;;;;;5079091;28;20134;-71
2023/12/02 11:07:48;;;;;;;0.30;0.30;;;;;;;;;;5082793;28;20056;-71
2023/12/02 11:10:17;;;;;;;0.75;0.75;;;;;;;;;;5083102;28;20051;-72
2023/12/02 11:12:50;;;;;;;0.45;0.45;;;;;;;;;;5085462;28;20048;-71
2023/12/02 11:15:23;;;;;;;0.95;0.95;;;0.90;52.60;;;;;;5082045;28;20042;-71
2023/12/02 11:17:55;;;;;;;0.20;0.20;;;;;;;;;;5086530;28;20052;-71
2023/12/02 11:20:27;;;;;;;0.50;0.50;;;;;;;;;;5082088;28;20044;-71
2023/12/02 11:23:21;;;;;;;0.20;0.20;;;2.10;53.80;;;;;;5085557;28;20048;-71
2023/12/02 11:26:18;;;;;;;0.77;0.77;;;2.80;53.60;;;;;;5068396;28;20568;-71
2023/12/02 11:29:04;;;;;;;0.80;0.80;;;;;;;;;;5081824;28;20063;-72
2023/12/02 11:31:36;;;;;;;0.40;0.40;;;;;;;;;;5070791;28;20386;-71
2023/12/02 11:34:08;;;;;;;0.50;0.50;;;;;;;;;;5077240;28;20543;-71
2023/12/02 11:36:34;;;;;;;0.40;0.40;;;;;;;;;;5089831;28;20044;-72
2023/12/02 11:39:03;;;;;;;0.40;0.40;;;;;;;;;;5071084;28;20067;-71
2023/12/02 11:41:29;;;;;;;0.50;0.50;;;;;;;;;;5071003;28;20049;-71
2023/12/02 11:43:55;;;;;;;4.35;1.42;;;;;;;;;;5070548;28;20072;-72
2023/12/02 11:46:25;;;;;;;0.45;0.45;;;0.80;49.80;;;;;;5069486;28;20056;-72
2023/12/02 11:49:24;;;;;;;0.60;0.60;;;2.90;49.80;;;;;;5071037;28;20052;-72
2023/12/02 11:52:01;;;;;;;0.55;0.55;;;;;;;;;;5070756;28;20463;-72
2023/12/02 11:54:59;;;;;;;0.40;0.40;;;2.10;48.60;;;;;;5074812;28;20388;-72
2023/12/02 11:57:25;;;;;;;4.95;0.70;;;;;;;;;;5072685;28;20110;-71
2023/12/02 12:00:06;;;;;;;0.30;0.30;;;;;;;;;;5074709;28;20153;-72
2023/12/02 12:02:34;;;;;;;0.32;0.32;;;;;;;;;;5084156;28;20056;-72
2023/12/02 12:05:00;;;;;;;0.95;0.95;;;;;;;;;;5093415;28;20036;-71
2023/12/02 12:07:52;;;;;;;2.17;1.65;;;2.00;48.30;;;;;;5092019;28;20484;-71
2023/12/02 12:10:35;;;;;;;0.38;0.38;;;;;;;;;;5093363;28;20454;-73
2023/12/02 12:13:02;;;;;;;0.65;0.43;;;;;;;;;;5071392;28;20056;-71
2023/12/02 12:15:28;;;;;;;0.65;0.65;;;;;;;;;;5092930;28;20046;-71
2023/12/02 12:17:55;;;;;;;0.30;0.30;;;;;;;;;;5093573;28;20051;-71
2023/12/02 12:20:22;;;;;;;0.40;0.40;;;;;;;;;;5092792;28;20056;-72
2023/12/02 12:22:48;;;;;;;0.38;0.38;;;;;;;;;;5093866;28;20121;-72
2023/12/02 12:25:14;;;;;;;0.40;0.40;;;3.50;55.70;;;;;;5092518;28;20037;-71
2023/12/02 12:27:41;;;;;;;1.27;1.27;;;;;;;;;;5093457;28;20098;-72
2023/12/02 12:30:08;;;;;;;0.20;0.20;;;;;;;;;;5079772;28;20051;-72
2023/12/02 12:32:34;;;;;;;0.30;0.30;;;;;;;;;;5069881;28;20462;-72
2023/12/02 12:35:00;;;;;;;0.77;0.77;;;;;;;;;;5086738;28;20583;-72
2023/12/02 12:37:26;;;;;;;0.93;0.93;;;;;;;;;;5093306;28;20047;-72
2023/12/02 12:39:52;;;;;;;;;;;2.40;65.80;;;;;;5093471;28;20047;-72
2023/12/02 12:42:19;;;;;;;0.85;0.85;;;;;;;;;;5093452;28;19919;-72
2023/12/02 12:44:46;;;;;;;0.30;0.30;;;;;;;;;;5092267;28;20052;-72
2023/12/02 12:47:12;;;;;;;;;;;;;;;;;;5093790;28;20056;-72
2023/12/02 12:49:41;;;;;;;0.80;0.80;;;2.80;59.40;;;;;;5092183;28;19923;-71
2023/12/02 12:52:13;;;;;;;0.30;0.30;;;2.90;56.10;;;;;;5092839;28;20765;-71
2023/12/02 12:54:45;;;;;;;1.08;1.08;;;4.00;47.90;;;;;;5091943;28;20037;-72
2023/12/02 12:57:14;;;;;;;0.30;0.30;;;;;;;;;;5093016;28;20044;-71
2023/12/02 12:59:43;;;;;;;0.95;0.75;;;;;;;;;;5092042;28;20059;-71
2023/12/02 13:02:12;;;;;;;0.40;0.40;;;;;;;;;;5092673;28;20137;-71
2023/12/02 13:04:58;;;;;;;0.52;0.52;;;;;;;;;;5091541;28;20047;-71
2023/12/02 13:07:35;;;;;;;0.45;0.43;;;5.60;54.20;;;;;;5085101;28;20056;-72
2023/12/02 13:10:02;;;;;;;0.32;0.32;;;4.20;47.30;;;;;;5071776;28;20052;-70
2023/12/02 13:12:32;;;;;;;0.40;0.40;;;5.30;26.80;;;;;;5072458;28;20052;-70
2023/12/02 13:15:03;;;;;;;0.68;0.68;;;4.00;20.50;;;;;;5082527;28;20462;-70
2023/12/02 13:17:32;;;;;;;0.52;0.52;;;4.00;11.00;;;;;;5092591;28;20040;-70
2023/12/02 13:20:02;;;;;;;0.40;0.40;;;;;;;;;;5092382;28;20100;-70
2023/12/02 13:22:30;;;;;;;0.63;0.63;;;3.70;11.50;;;;;;5092109;28;20047;-69
2023/12/02 13:25:25;;;;;;;0.43;0.40;;;3.70;11.80;;;;;;5092476;28;20051;-69
2023/12/02 13:27:51;;;;;;;0.40;0.40;;;;;;;;;;5069782;28;20051;-69
2023/12/02 13:30:18;;;;;;;0.22;0.22;;;4.10;13.40;;;;;;5090566;28;20041;-70
2023/12/02 13:32:46;;;;;;;0.40;0.40;;;;;;;;;;5081864;28;20504;-70
2023/12/02 13:35:12;;;;;;;0.30;0.30;;;;;;;;;;5088147;28;20105;-69
2023/12/02 13:38:15;;;;;;;0.20;0.20;;;2.40;13.80;;;;;;5091861;28;20051;-69
2023/12/02 13:40:44;;;;;;;0.32;0.32;;;;;;;;;;5092003;28;20052;-69
2023/12/02 13:43:13;;;;;;;0.20;0.20;;;2.40;13.30;;;;;;5091431;28;20404;-69
2023/12/02 13:45:40;;;;;;;0.20;0.20;;;4.10;16.60;;;;;;5092033;28;20044;-69
2023/12/02 13:48:28;;;;;;;1.30;0.60;;;2.20;15.20;;;;;;5091412;28;20044;-69
2023/12/02 13:51:37;;;;;;;0.50;0.50;;;3.10;17.60;;;;;;5092070;28;20052;-69
2023/12/02 13:54:08;;;;;;;0.57;0.57;;;;;;;;;;5083705;28;20059;-69
2023/12/02 13:57:08;;;;;;;0.55;0.55;;;3.20;17.30;;;;;;5091478;28;20127;-69
2023/12/02 13:59:43;;;;;;;0.40;0.40;;;;;;;;;;5091230;28;20534;-69
2023/12/02 14:02:27;;;;;;;0.30;0.30;;;;;;;;;;5091937;28;20076;-71
2023/12/02 14:05:06;;;;;;;0.20;0.20;;;;;;;;;;5065353;28;20059;-69
2023/12/02 14:07:33;;;;;;;0.40;0.40;;;;;;;;;;5075869;28;20064;-70
2023/12/02 14:10:01;;;;;;;0.25;0.25;;;3.60;17.30;;;;;;5071418;28;20091;-69
2023/12/02 14:12:39;;;;;;;0.30;0.30;;;;;;;;;;5079958;28;20457;-69
2023/12/02 14:15:17;;;;;;;0.75;0.75;;;3.80;16.10;;;;;;5076206;28;20074;-79
2023/12/02 14:17:50;;;;;;;0.30;0.30;;;;;;;;;;5078915;28;20252;-73
2023/12/02 14:20:28;;;;;;;0.35;0.35;;;;;;;;;;5076244;28;20434;-69
2023/12/02 14:23:22;;;;;;;0.20;0.20;;;;;;;;;;5076980;28;20233;-67
2023/12/02 14:25:48;;;;;;;0.30;0.30;;;;;;;;;;5082054;28;20032;-67
2023/12/02 14:28:17;;;;;;;0.30;0.30;;;;;;;;;;5066772;28;20037;-69
2023/12/02 14:31:10;;;;;;;0.50;0.50;;;1.90;17.20;;;;;;5081171;28;20092;-67
2023/12/02 14:33:46;;;;;;;0.70;0.70;;;;;;;;;;5073139;28;20049;-67
2023/12/02 14:36:15;;;;;;;0.40;0.40;;;;;;;;;;5091058;28;20155;-69
2023/12/02 14:39:16;;;;;;;0.60;0.43;;;;;;;;;;5082333;28;20044;-67